Time;durP1;ratioP1;P1;durP2;ratioP2;P2;SDS_P1;SDS_P2;PMS_P1;PMS_P2;Temp;Humidity;BMP_temperature;BMP_pressure;BME280_temperature;BME280_humidity;BME280_pressure;Samples;Min_cycle;Max_cycle;Signal;HPM_P1;HPM_P2
2022/10/05 00:01:48;;;;;;;1.00;0.90;;;11.80;97.30;;;;;;5072395;28;20186;-90
2022/10/05 00:04:22;;;;;;;2.00;1.17;;;11.70;97.30;;;;;;5076121;28;20878;-90
2022/10/05 00:07:05;;;;;;;19.80;1.93;;;11.70;97.30;;;;;;5076008;28;20989;-90
2022/10/05 00:09:33;;;;;;;1.30;1.20;;;11.70;97.30;;;;;;5076066;28;20459;-91
2022/10/05 00:12:45;;;;;;;1.37;1.27;;;11.70;97.30;;;;;;5075816;28;20832;-90
2022/10/05 00:15:43;;;;;;;1.50;1.40;;;11.70;97.30;;;;;;5008321;28;20638;-90
2022/10/05 00:18:52;;;;;;;1.20;0.97;;;11.70;97.30;;;;;;4915002;29;20433;-90
2022/10/05 00:22:03;;;;;;;1.57;1.33;;;11.70;97.30;;;;;;4896889;29;20928;-90
2022/10/05 00:25:12;;;;;;;1.23;1.10;;;11.70;97.30;;;;;;4886151;29;20980;-90
2022/10/05 00:31:43;;;;;;;1.20;1.10;;;11.60;97.30;;;;;;4955088;28;20430;-90
2022/10/05 00:34:11;;;;;;;2.43;1.50;;;11.60;97.30;;;;;;4994633;28;20420;-91
2022/10/05 00:36:53;;;;;;;1.43;1.27;;;11.60;97.30;;;;;;4994506;28;20424;-90
2022/10/05 00:39:21;;;;;;;1.43;1.10;;;11.50;97.30;;;;;;5057745;28;20441;-90
2022/10/05 00:41:59;;;;;;;48.03;1.77;;;11.50;97.30;;;;;;5075564;28;20413;-90
2022/10/05 00:44:39;;;;;;;1.27;1.10;;;11.60;97.30;;;;;;5071674;28;20467;-89
2022/10/05 00:47:30;;;;;;;1.73;1.63;;;11.60;97.30;;;;;;5063725;28;20416;-89
2022/10/05 00:50:19;;;;;;;1.63;1.53;;;11.70;97.30;;;;;;5091763;28;20460;-90
2022/10/05 00:53:00;;;;;;;1.33;0.97;;;11.70;97.30;;;;;;5093038;28;20412;-90
2022/10/05 00:55:37;;;;;;;1.63;1.33;;;11.70;97.30;;;;;;5093139;28;20433;-90
2022/10/05 00:58:32;;;;;;;1.40;1.30;;;11.80;97.30;;;;;;5091456;28;20499;-90
2022/10/05 01:01:23;;;;;;;1.30;1.20;;;11.80;97.30;;;;;;5074789;28;20427;-91
2022/10/05 01:04:16;;;;;;;1.83;1.47;;;11.80;97.30;;;;;;5074940;28;20428;-90
2022/10/05 01:07:14;;;;;;;1.50;1.10;;;11.80;97.30;;;;;;5061494;28;20463;-90
2022/10/05 01:10:00;;;;;;;3.10;1.77;;;11.80;97.30;;;;;;5062386;28;20547;-90
2022/10/05 01:12:56;;;;;;;1.67;1.17;;;11.80;97.30;;;;;;5074729;28;20453;-90
2022/10/05 01:15:44;;;;;;;2.03;1.60;;;11.80;97.30;;;;;;5074755;28;20424;-90
2022/10/05 01:18:28;;;;;;;1.10;1.00;;;11.80;97.30;;;;;;5071214;28;20410;-90
2022/10/05 01:21:25;;;;;;;1.97;1.87;;;11.80;97.30;;;;;;5074405;28;20447;-90
2022/10/05 01:24:26;;;;;;;2.40;1.10;;;11.80;97.30;;;;;;5074166;28;20464;-90
2022/10/05 01:27:09;;;;;;;1.33;1.23;;;11.80;97.30;;;;;;5074201;28;20433;-91
2022/10/05 01:29:37;;;;;;;2.07;1.77;;;11.80;97.30;;;;;;5070396;28;20648;-91
2022/10/05 01:32:22;;;;;;;1.53;1.43;;;11.80;97.30;;;;;;5073967;28;20462;-90
2022/10/05 01:35:15;;;;;;;1.23;1.13;;;11.80;97.30;;;;;;5073823;28;20419;-90
2022/10/05 01:37:56;;;;;;;1.57;1.13;;;11.70;97.30;;;;;;5069369;28;20421;-90
2022/10/05 01:41:04;;;;;;;1.37;1.30;;;11.70;97.30;;;;;;5070553;28;20440;-90
2022/10/05 01:43:46;;;;;;;1.10;1.00;;;11.70;97.30;;;;;;5060196;28;20429;-90
2022/10/05 01:46:23;;;;;;;1.47;1.20;;;11.70;97.30;;;;;;5073306;28;20416;-89
2022/10/05 01:49:16;;;;;;;5.40;2.07;;;11.70;97.30;;;;;;5073697;28;20424;-89
2022/10/05 01:51:57;;;;;;;2.00;1.67;;;11.70;97.30;;;;;;5063686;28;20421;-90
2022/10/05 01:54:42;;;;;;;1.70;1.67;;;11.60;97.30;;;;;;5073001;28;20423;-90
2022/10/05 01:57:36;;;;;;;1.17;1.07;;;11.60;97.30;;;;;;5092660;28;20670;-90
2022/10/05 02:00:08;;;;;;;1.70;1.60;;;11.60;97.30;;;;;;5080101;28;20436;-90
2022/10/05 02:02:41;;;;;;;1.10;1.00;;;11.60;97.30;;;;;;5073052;28;20471;-90
2022/10/05 02:05:18;;;;;;;1.10;1.00;;;11.60;97.30;;;;;;5073540;28;20413;-90
2022/10/05 02:08:07;;;;;;;1.47;1.40;;;11.60;97.30;;;;;;5070110;28;20425;-90
2022/10/05 02:10:39;;;;;;;1.20;1.10;;;11.60;97.30;;;;;;5073370;28;20811;-90
2022/10/05 02:13:21;;;;;;;1.43;1.40;;;11.60;97.30;;;;;;5073924;28;20416;-90
2022/10/05 02:16:03;;;;;;;1.43;1.40;;;11.60;97.30;;;;;;5067592;28;20859;-90
2022/10/05 02:18:39;;;;;;;5.03;2.60;;;11.50;97.30;;;;;;5072936;28;20463;-90
2022/10/05 02:21:06;;;;;;;1.23;1.13;;;11.50;97.30;;;;;;5073832;28;20455;-90
2022/10/05 02:23:35;;;;;;;7.07;1.53;;;11.50;97.30;;;;;;5072983;28;20463;-90
2022/10/05 02:26:02;;;;;;;1.20;1.10;;;11.50;97.30;;;;;;5073456;28;20416;-91
2022/10/05 02:28:32;;;;;;;1.73;1.20;;;11.50;97.30;;;;;;5073323;28;20922;-90
2022/10/05 02:31:08;;;;;;;1.47;1.37;;;11.40;97.30;;;;;;5090440;28;20491;-90
2022/10/05 02:33:34;;;;;;;1.63;1.43;;;11.30;97.30;;;;;;5073035;28;20448;-90
2022/10/05 02:36:09;;;;;;;1.63;1.50;;;11.20;97.30;;;;;;5091323;28;20421;-90
2022/10/05 02:39:05;;;;;;;1.00;0.90;;;11.20;97.30;;;;;;5072919;28;20830;-90
2022/10/05 02:41:44;;;;;;;1.30;1.20;;;11.10;97.30;;;;;;5059512;28;20409;-90
2022/10/05 02:44:37;;;;;;;2.60;2.10;;;11.10;97.30;;;;;;5073289;28;20500;-90
2022/10/05 02:47:26;;;;;;;3.87;1.40;;;11.00;97.30;;;;;;5070470;28;20413;-90
2022/10/05 02:50:39;;;;;;;1.30;1.20;;;11.00;97.30;;;;;;5069743;28;20622;-90
2022/10/05 02:53:26;;;;;;;1.20;1.10;;;11.00;97.30;;;;;;5019036;28;20419;-90
2022/10/05 02:56:10;;;;;;;4.70;1.30;;;11.00;97.30;;;;;;5073440;28;20621;-90
2022/10/05 02:59:15;;;;;;;1.90;1.33;;;11.00;97.30;;;;;;5072942;28;20412;-90
2022/10/05 03:02:08;;;;;;;1.77;1.30;;;10.90;97.30;;;;;;5091202;28;20412;-90
2022/10/05 03:05:00;;;;;;;1.17;1.07;;;10.80;97.30;;;;;;5072606;28;20483;-90
2022/10/05 03:07:55;;;;;;;1.73;1.20;;;10.70;97.30;;;;;;5064685;28;20420;-91
2022/10/05 03:10:23;;;;;;;3.90;1.70;;;10.70;97.30;;;;;;5089627;28;20471;-90
2022/10/05 03:13:07;;;;;;;2.60;1.53;;;10.60;97.30;;;;;;5073196;28;20895;-90
2022/10/05 03:16:12;;;;;;;1.90;1.63;;;10.50;97.30;;;;;;5069021;28;20951;-90
2022/10/05 03:19:00;;;;;;;1.67;1.20;;;10.40;97.30;;;;;;5074619;28;20424;-90
2022/10/05 03:21:48;;;;;;;2.23;2.03;;;10.40;97.30;;;;;;5072658;28;20470;-90
2022/10/05 03:24:33;;;;;;;1.47;1.00;;;10.40;97.30;;;;;;5089636;28;20461;-90
2022/10/05 03:27:27;;;;;;;1.63;1.53;;;10.30;97.30;;;;;;5081006;28;20430;-90
2022/10/05 03:30:10;;;;;;;3.17;1.20;;;10.30;97.30;;;;;;5072306;28;21045;-90
2022/10/05 03:33:01;;;;;;;1.30;1.20;;;10.30;97.30;;;;;;5071896;28;20410;-90
2022/10/05 03:35:30;;;;;;;4.50;1.50;;;10.30;97.30;;;;;;5064376;28;20417;-90
2022/10/05 03:38:05;;;;;;;4.90;1.53;;;10.30;97.30;;;;;;5089319;28;20415;-90
2022/10/05 03:40:42;;;;;;;1.33;1.03;;;10.30;97.30;;;;;;5071348;28;20448;-90
2022/10/05 03:43:35;;;;;;;1.10;1.00;;;10.30;97.30;;;;;;5089718;28;20953;-89
2022/10/05 03:46:01;;;;;;;1.47;1.37;;;10.30;97.30;;;;;;5090693;28;20833;-90
2022/10/05 03:48:48;;;;;;;5.03;1.50;;;10.30;97.30;;;;;;5072569;28;20409;-90
2022/10/05 03:51:33;;;;;;;3.13;2.23;;;10.30;97.30;;;;;;5080467;28;20455;-90
2022/10/05 03:54:09;;;;;;;2.93;2.40;;;10.20;97.30;;;;;;5075780;28;20805;-89
2022/10/05 03:56:44;;;;;;;1.90;1.80;;;10.20;97.30;;;;;;5076086;28;21068;-90
2022/10/05 03:59:27;;;;;;;5.53;1.70;;;10.30;97.30;;;;;;5075839;28;20504;-90
2022/10/05 04:01:59;;;;;;;1.37;1.20;;;10.30;97.30;;;;;;5075243;28;20525;-89
2022/10/05 04:04:45;;;;;;;1.03;0.93;;;10.20;97.30;;;;;;5076138;28;20421;-90
2022/10/05 04:07:34;;;;;;;1.67;1.50;;;10.20;97.30;;;;;;5094286;28;20412;-90
2022/10/05 04:10:02;;;;;;;1.13;1.07;;;10.20;97.30;;;;;;5075708;28;20470;-90
2022/10/05 04:12:41;;;;;;;1.73;1.63;;;10.10;97.30;;;;;;5072837;28;20414;-90
2022/10/05 04:15:25;;;;;;;1.63;1.30;;;10.10;97.30;;;;;;5075537;28;20416;-91
2022/10/05 04:17:57;;;;;;;2.07;1.60;;;10.10;97.30;;;;;;5075952;28;20412;-90
2022/10/05 04:20:41;;;;;;;2.50;1.20;;;10.20;97.30;;;;;;5076075;28;20452;-90
2022/10/05 04:23:25;;;;;;;1.10;1.00;;;10.20;97.30;;;;;;5075629;28;20521;-90
2022/10/05 04:25:56;;;;;;;1.97;1.67;;;10.10;97.30;;;;;;5076007;28;20934;-90
2022/10/05 04:28:22;;;;;;;2.50;1.50;;;10.10;97.30;;;;;;5063125;28;20413;-90
2022/10/05 04:30:50;;;;;;;1.83;1.40;;;10.10;97.30;;;;;;5075503;28;20530;-90
2022/10/05 04:33:15;;;;;;;1.10;1.00;;;10.00;97.30;;;;;;5075850;28;20206;-90
2022/10/05 04:35:53;;;;;;;1.67;1.40;;;9.90;97.30;;;;;;5093539;28;20475;-90
2022/10/05 04:38:40;;;;;;;1.07;0.97;;;9.90;97.30;;;;;;5075857;28;20178;-90
2022/10/05 04:41:24;;;;;;;4.70;1.20;;;9.80;97.30;;;;;;5074999;28;20427;-90
2022/10/05 04:44:27;;;;;;;1.27;1.27;;;9.80;97.30;;;;;;5075178;28;20416;-90
2022/10/05 04:47:36;;;;;;;1.60;1.50;;;9.80;97.30;;;;;;5085924;28;20461;-90
2022/10/05 04:50:18;;;;;;;2.20;1.80;;;9.80;97.30;;;;;;5066719;28;20465;-90
2022/10/05 04:52:58;;;;;;;1.90;1.43;;;9.90;97.30;;;;;;5075258;28;20964;-90
2022/10/05 04:55:39;;;;;;;3.63;2.07;;;9.90;97.30;;;;;;5075055;28;20508;-90
2022/10/05 04:58:22;;;;;;;4.00;3.13;;;10.00;97.30;;;;;;5075647;28;20423;-90
2022/10/05 05:01:23;;;;;;;1.40;1.30;;;10.00;97.30;;;;;;5093056;28;20489;-90
2022/10/05 05:04:32;;;;;;;4.30;1.60;;;10.10;97.30;;;;;;5092964;28;20416;-90
2022/10/05 05:07:21;;;;;;;2.87;2.63;;;10.10;97.30;;;;;;5072708;28;20428;-90
2022/10/05 05:10:24;;;;;;;1.30;1.20;;;10.20;97.30;;;;;;5075726;28;20551;-89
2022/10/05 05:13:16;;;;;;;1.47;1.37;;;10.20;97.30;;;;;;5093417;28;20498;-90
2022/10/05 05:16:03;;;;;;;1.60;1.50;;;10.20;97.30;;;;;;5082736;28;20412;-90
2022/10/05 05:18:47;;;;;;;2.10;1.63;;;10.20;97.30;;;;;;5071759;28;20414;-88
2022/10/05 05:21:31;;;;;;;1.43;1.17;;;10.20;97.30;;;;;;5074341;28;20420;-89
2022/10/05 05:24:36;;;;;;;1.83;1.63;;;10.20;97.30;;;;;;5074848;28;20468;-90
2022/10/05 05:27:26;;;;;;;1.63;1.37;;;10.20;97.30;;;;;;5071168;28;20424;-89
2022/10/05 05:30:06;;;;;;;4.97;1.40;;;10.20;97.30;;;;;;5070904;28;20547;-89
2022/10/05 05:32:50;;;;;;;1.63;1.10;;;10.20;97.30;;;;;;5086809;28;20807;-89
2022/10/05 05:35:34;;;;;;;2.23;1.20;;;10.20;97.30;;;;;;5091293;28;20559;-89
2022/10/05 05:38:24;;;;;;;1.60;1.50;;;10.30;97.30;;;;;;5091650;28;20980;-90
2022/10/05 05:41:00;;;;;;;7.90;1.97;;;10.30;97.30;;;;;;5074490;28;20958;-90
2022/10/05 05:43:36;;;;;;;2.27;2.00;;;10.30;97.30;;;;;;5091313;28;20462;-89
2022/10/05 05:46:21;;;;;;;1.80;1.67;;;10.30;97.30;;;;;;5074218;28;20416;-89
2022/10/05 05:48:47;;;;;;;1.30;1.20;;;10.40;97.30;;;;;;5072972;28;20507;-90
2022/10/05 05:51:22;;;;;;;1.10;1.00;;;10.40;97.30;;;;;;5062365;28;20460;-90
2022/10/05 05:54:26;;;;;;;2.00;1.50;;;10.40;97.30;;;;;;5074185;28;20423;-90
2022/10/05 05:57:07;;;;;;;1.33;1.23;;;10.40;97.30;;;;;;5092124;28;20416;-90
2022/10/05 05:59:52;;;;;;;6.83;1.60;;;10.50;97.30;;;;;;5070719;28;20440;-89
2022/10/05 06:02:23;;;;;;;2.17;1.90;;;10.50;97.30;;;;;;5073977;28;20409;-90
2022/10/05 06:04:55;;;;;;;1.33;1.20;;;10.60;97.30;;;;;;5091047;28;20420;-90
2022/10/05 06:07:28;;;;;;;1.47;1.37;;;10.60;97.30;;;;;;5061380;28;20459;-90
2022/10/05 06:10:04;;;;;;;1.93;1.50;;;10.60;97.30;;;;;;5073874;28;20452;-90
2022/10/05 06:12:43;;;;;;;2.07;1.87;;;10.60;97.30;;;;;;5074445;28;20416;-89
2022/10/05 06:15:32;;;;;;;3.23;1.40;;;10.70;97.30;;;;;;5072928;28;20439;-90
2022/10/05 06:18:21;;;;;;;1.23;1.13;;;10.70;97.30;;;;;;5073884;28;20474;-90
2022/10/05 06:25:14;;;;;;;4.20;1.40;;;10.90;97.30;;;;;;5001049;28;20842;-90
2022/10/05 06:28:13;;;;;;;1.93;1.50;;;11.00;97.30;;;;;;4957972;28;20420;-89
2022/10/05 06:30:53;;;;;;;20.97;2.87;;;11.10;97.30;;;;;;4997193;28;20475;-90
2022/10/05 06:34:22;;;;;;;6.00;3.10;;;11.30;97.30;;;;;;4981269;28;20514;-90
2022/10/05 06:37:42;;;;;;;1.90;1.80;;;11.40;97.30;;;;;;4987418;28;20491;-88
2022/10/05 06:40:54;;;;;;;1.77;1.53;;;11.60;97.30;;;;;;4976719;28;20469;-88
2022/10/05 06:43:42;;;;;;;1.50;1.30;;;11.80;97.30;;;;;;5002685;28;20427;-88
2022/10/05 06:46:23;;;;;;;1.43;1.33;;;11.90;97.30;;;;;;4989149;28;20432;-90
2022/10/05 06:49:07;;;;;;;1.80;1.73;;;12.00;97.30;;;;;;5055389;28;20551;-90
2022/10/05 06:51:38;;;;;;;1.47;1.20;;;12.10;97.30;;;;;;5073547;28;20440;-90
2022/10/05 06:54:16;;;;;;;10.73;2.60;;;12.20;97.30;;;;;;5072717;28;20447;-90
2022/10/05 06:56:50;;;;;;;2.17;1.90;;;12.30;97.30;;;;;;5090107;28;20431;-89
2022/10/05 06:59:21;;;;;;;2.10;1.50;;;12.40;97.30;;;;;;5077041;28;20454;-89
2022/10/05 07:01:56;;;;;;;15.03;2.40;;;12.40;97.30;;;;;;5073049;28;20408;-90
2022/10/05 07:05:01;;;;;;;2.47;1.80;;;12.40;97.30;;;;;;5069819;28;20564;-90
2022/10/05 07:07:47;;;;;;;1.40;1.30;;;12.50;97.30;;;;;;5059177;28;20431;-90
2022/10/05 07:10:36;;;;;;;1.57;1.47;;;12.60;97.30;;;;;;5091159;28;20984;-90
2022/10/05 07:13:13;;;;;;;3.17;1.50;;;12.70;97.30;;;;;;5090724;28;20489;-90
2022/10/05 07:15:57;;;;;;;7.70;1.73;;;12.80;97.30;;;;;;5091200;28;20914;-89
2022/10/05 07:18:23;;;;;;;24.47;4.33;;;12.90;97.30;;;;;;5072944;28;20416;-90
2022/10/05 07:21:02;;;;;;;2.07;1.73;;;13.00;97.30;;;;;;5072754;28;20450;-90
2022/10/05 07:23:44;;;;;;;4.60;1.30;;;13.10;97.30;;;;;;5069085;28;20309;-90
2022/10/05 07:26:24;;;;;;;2.00;1.87;;;13.20;97.30;;;;;;5073873;28;20424;-90
2022/10/05 07:29:09;;;;;;;1.40;1.30;;;13.30;97.30;;;;;;5076852;28;20420;-90
2022/10/05 07:32:09;;;;;;;2.67;1.90;;;13.40;97.30;;;;;;5076356;28;20425;-90
2022/10/05 07:34:52;;;;;;;1.80;1.70;;;13.50;97.30;;;;;;5076362;28;20463;-91
2022/10/05 07:37:56;;;;;;;2.43;2.03;;;13.60;97.30;;;;;;5076855;28;20423;-90
2022/10/05 07:40:43;;;;;;;1.47;1.37;;;13.70;97.30;;;;;;5068869;28;20435;-90
2022/10/05 07:43:52;;;;;;;3.00;2.80;;;13.70;97.30;;;;;;5076638;28;20424;-90
2022/10/05 07:46:31;;;;;;;1.10;1.10;;;13.80;97.30;;;;;;5076033;28;20435;-90
2022/10/05 07:48:56;;;;;;;1.60;1.40;;;13.90;97.30;;;;;;5076069;28;20440;-89
2022/10/05 07:51:28;;;;;;;2.17;2.00;;;14.00;97.30;;;;;;5093430;28;21033;-90
2022/10/05 07:54:15;;;;;;;2.30;1.40;;;14.10;97.30;;;;;;5093180;28;20174;-90
2022/10/05 07:56:43;;;;;;;1.10;1.00;;;14.10;97.30;;;;;;5076835;28;20446;-89
2022/10/05 07:59:38;;;;;;;1.40;1.33;;;14.10;97.30;;;;;;5076218;28;20977;-90
2022/10/05 08:02:41;;;;;;;1.60;1.57;;;14.20;97.30;;;;;;5076654;28;20448;-90
2022/10/05 08:05:16;;;;;;;1.40;1.30;;;14.20;97.30;;;;;;5055952;28;20429;-89
2022/10/05 08:07:42;;;;;;;2.83;1.83;;;14.30;97.30;;;;;;5076379;28;20408;-90
2022/10/05 08:10:35;;;;;;;1.63;1.13;;;14.40;97.30;;;;;;5075929;28;21068;-90
2022/10/05 08:13:06;;;;;;;2.07;1.93;;;14.50;97.30;;;;;;5076486;28;20412;-91
2022/10/05 08:15:39;;;;;;;5.07;1.70;;;14.50;97.30;;;;;;5093435;28;20439;-90
2022/10/05 08:18:25;;;;;;;2.13;1.50;;;14.60;97.30;;;;;;5094753;28;20412;-90
2022/10/05 08:20:57;;;;;;;1.53;1.43;;;14.60;97.30;;;;;;5036324;28;20436;-90
2022/10/05 08:23:54;;;;;;;1.17;1.10;;;14.70;97.30;;;;;;5075376;28;20448;-91
2022/10/05 08:26:45;;;;;;;3.00;1.30;;;14.80;97.30;;;;;;5076430;28;20943;-90
2022/10/05 08:29:23;;;;;;;1.60;1.50;;;14.80;97.30;;;;;;5092886;28;20438;-90
2022/10/05 08:31:54;;;;;;;1.30;1.23;;;14.90;97.30;;;;;;5075840;28;20420;-91
2022/10/05 08:34:28;;;;;;;1.77;1.47;;;14.90;97.30;;;;;;5075568;28;20911;-90
2022/10/05 08:37:02;;;;;;;3.37;1.60;;;14.90;97.30;;;;;;5094769;28;20858;-91
2022/10/05 08:39:54;;;;;;;1.63;1.20;;;15.00;97.30;;;;;;5072508;28;20448;-90
2022/10/05 08:42:34;;;;;;;2.43;1.83;;;15.00;97.30;;;;;;5075452;28;20457;-90
2022/10/05 08:45:27;;;;;;;1.50;1.40;;;15.10;97.30;;;;;;5076162;28;20417;-89
2022/10/05 08:48:27;;;;;;;3.17;2.27;;;15.10;97.30;;;;;;5063348;28;20409;-91
2022/10/05 08:51:22;;;;;;;3.50;2.10;;;15.20;97.30;;;;;;5075470;28;21085;-90
2022/10/05 08:53:57;;;;;;;1.43;1.33;;;15.30;97.30;;;;;;5093312;28;20413;-90
2022/10/05 08:56:34;;;;;;;1.80;1.70;;;15.40;97.30;;;;;;5076055;28;20955;-91
2022/10/05 08:59:17;;;;;;;1.70;1.60;;;15.40;97.30;;;;;;5075498;28;20486;-90
2022/10/05 09:02:19;;;;;;;1.70;1.60;;;15.40;97.30;;;;;;5075596;28;20625;-90
2022/10/05 09:04:50;;;;;;;1.33;1.10;;;15.40;97.30;;;;;;5072220;28;20413;-91
2022/10/05 09:07:58;;;;;;;7.03;1.60;;;15.40;97.30;;;;;;5071941;28;20499;-90
2022/10/05 09:10:56;;;;;;;1.90;1.50;;;15.50;97.30;;;;;;5050744;28;20479;-91
2022/10/05 09:13:41;;;;;;;2.07;1.60;;;15.60;97.30;;;;;;5075441;28;20507;-89
2022/10/05 09:16:37;;;;;;;1.53;1.40;;;15.60;97.30;;;;;;5093511;28;20479;-90
2022/10/05 09:19:21;;;;;;;2.10;1.80;;;15.60;97.30;;;;;;5075468;28;20814;-90
2022/10/05 09:22:22;;;;;;;1.30;1.20;;;15.60;97.30;;;;;;5078106;28;20416;-89
2022/10/05 09:25:00;;;;;;;1.77;1.67;;;15.70;97.30;;;;;;5057053;28;20487;-90
2022/10/05 09:27:37;;;;;;;2.13;1.43;;;15.80;97.30;;;;;;5054419;28;20417;-90
2022/10/05 09:30:23;;;;;;;2.97;2.80;;;15.90;97.30;;;;;;5054793;28;20606;-89
2022/10/05 09:33:07;;;;;;;1.77;1.70;;;16.00;97.30;;;;;;5054371;28;20416;-89
2022/10/05 09:35:41;;;;;;;7.80;1.53;;;16.20;97.30;;;;;;5054443;28;20421;-90
2022/10/05 09:38:41;;;;;;;5.33;1.67;;;16.30;97.30;;;;;;5045266;28;20427;-89
2022/10/05 09:41:25;;;;;;;15.43;1.63;;;16.40;97.30;;;;;;5052234;28;20442;-90
2022/10/05 09:44:35;;;;;;;5.53;1.60;;;16.50;97.30;;;;;;5054073;28;20455;-91
2022/10/05 09:47:18;;;;;;;1.83;1.67;;;16.60;97.30;;;;;;4993199;28;20416;-90
2022/10/05 09:50:05;;;;;;;1.53;1.40;;;16.80;97.30;;;;;;5035991;28;20816;-91
2022/10/05 09:53:06;;;;;;;2.10;1.93;;;17.00;97.30;;;;;;5067001;28;20429;-91
2022/10/05 09:55:49;;;;;;;3.37;1.53;;;17.10;97.30;;;;;;5028314;28;20433;-91
2022/10/05 09:58:49;;;;;;;3.80;2.30;;;17.30;97.30;;;;;;5063039;28;20413;-90
2022/10/05 10:01:33;;;;;;;1.60;1.50;;;17.40;97.30;;;;;;5044421;28;20441;-90
2022/10/05 10:04:37;;;;;;;1.37;1.30;;;17.60;97.30;;;;;;5070190;28;20496;-90
2022/10/05 10:07:36;;;;;;;1.53;1.40;;;17.80;96.70;;;;;;5070376;28;20524;-90
2022/10/05 10:10:02;;;;;;;3.43;1.60;;;18.00;97.10;;;;;;5065720;28;20461;-90
2022/10/05 10:12:49;;;;;;;1.43;1.33;;;18.10;96.20;;;;;;5053732;28;20428;-90
2022/10/05 10:15:37;;;;;;;1.90;1.80;;;18.30;96.20;;;;;;5040524;28;20190;-90
2022/10/05 10:18:27;;;;;;;4.97;1.63;;;18.40;96.00;;;;;;5053584;28;20544;-90
2022/10/05 10:21:33;;;;;;;1.50;1.43;;;18.50;95.70;;;;;;5057686;28;20736;-90
2022/10/05 10:24:13;;;;;;;6.63;2.00;;;18.50;95.30;;;;;;5075541;28;20459;-90
2022/10/05 10:27:17;;;;;;;1.83;1.50;;;18.50;95.30;;;;;;5077925;28;20898;-90
2022/10/05 10:30:11;;;;;;;8.90;1.80;;;18.50;95.00;;;;;;5072656;28;20536;-90
2022/10/05 10:33:10;;;;;;;2.30;1.63;;;18.50;95.20;;;;;;5072441;28;20421;-90
2022/10/05 10:35:54;;;;;;;3.87;1.70;;;18.70;95.60;;;;;;5068805;28;20594;-90
2022/10/05 10:39:14;;;;;;;4.13;2.10;;;18.80;94.80;;;;;;5073358;28;20519;-90
2022/10/05 10:43:04;;;;;;;2.17;1.67;;;19.00;94.90;;;;;;5063865;28;20442;-88
2022/10/05 10:46:04;;;;;;;3.73;1.80;;;19.20;94.00;;;;;;4981349;28;20530;-89
2022/10/05 10:49:05;;;;;;;2.87;1.43;;;19.50;93.80;;;;;;4989165;28;20662;-90
2022/10/05 10:51:54;;;;;;;3.47;2.33;;;19.70;93.40;;;;;;4974146;28;20431;-91
2022/10/05 10:54:44;;;;;;;2.70;1.20;;;19.90;93.20;;;;;;4983080;28;20835;-89
2022/10/05 10:57:34;;;;;;;2.50;1.63;;;20.10;93.10;;;;;;4986252;28;20424;-90
2022/10/05 11:00:14;;;;;;;5.33;2.07;;;20.30;92.70;;;;;;4961921;28;20446;-89
2022/10/05 11:03:24;;;;;;;2.57;1.73;;;20.40;91.60;;;;;;5041039;28;20424;-90
2022/10/05 11:06:24;;;;;;;6.60;1.97;;;20.60;91.40;;;;;;5012265;28;20431;-89
2022/10/05 11:13:04;;;;;;;3.23;3.10;;;20.40;91.00;;;;;;4954408;28;20966;-91
2022/10/05 11:15:54;;;;;;;1.40;1.40;;;20.10;90.80;;;;;;4999768;28;20423;-89
2022/10/05 11:19:03;;;;;;;2.13;1.43;;;20.00;90.80;;;;;;5013676;28;20503;-91
2022/10/05 11:22:04;;;;;;;1.90;1.40;;;19.90;90.90;;;;;;5008487;28;20424;-90
2022/10/05 11:28:13;;;;;;;1.90;1.67;;;20.00;90.90;;;;;;5007883;28;20435;-89
2022/10/05 11:31:22;;;;;;;1.30;1.20;;;20.10;91.30;;;;;;5024018;28;20502;-90
2022/10/05 11:34:13;;;;;;;4.67;1.10;;;20.10;90.60;;;;;;5061413;28;20564;-90
2022/10/05 11:37:04;;;;;;;1.27;1.20;;;20.20;90.80;;;;;;5048480;28;20426;-86
2022/10/05 11:40:04;;;;;;;1.43;1.17;;;20.20;90.30;;;;;;5067733;28;20426;-89
2022/10/05 11:42:42;;;;;;;1.40;1.30;;;20.10;89.60;;;;;;5054813;28;20417;-89
2022/10/05 11:45:53;;;;;;;3.63;3.47;;;20.00;89.90;;;;;;5056494;28;20502;-86
2022/10/05 11:48:53;;;;;;;1.47;1.30;;;20.00;90.30;;;;;;4992281;28;20784;-89
2022/10/05 11:52:13;;;;;;;2.60;1.63;;;19.90;90.80;;;;;;5069754;28;20493;-88
2022/10/05 11:54:52;;;;;;;5.70;3.23;;;19.90;90.40;;;;;;5037707;28;20417;-89
2022/10/05 11:57:41;;;;;;;1.87;1.60;;;19.80;90.70;;;;;;5070947;28;20433;-91
2022/10/05 12:00:23;;;;;;;1.37;1.27;;;19.80;91.10;;;;;;5055643;28;20441;-89
2022/10/05 12:03:02;;;;;;;2.07;1.70;;;19.80;91.00;;;;;;5053004;28;20418;-91
2022/10/05 12:06:23;;;;;;;1.33;1.33;;;20.00;91.30;;;;;;5072425;28;20530;-90
2022/10/05 12:09:23;;;;;;;3.20;2.20;;;20.10;91.00;;;;;;5055674;28;20934;-88
2022/10/05 12:12:44;;;;;;;1.43;1.33;;;20.20;91.20;;;;;;5055217;28;20468;-89
2022/10/05 12:15:44;;;;;;;1.83;1.63;;;20.30;90.90;;;;;;4996182;28;20429;-90
2022/10/05 12:18:38;;;;;;;2.63;2.20;;;20.40;90.50;;;;;;5055806;28;20846;-89
2022/10/05 12:21:44;;;;;;;2.00;1.90;;;20.30;90.50;;;;;;5051106;28;20972;-88
2022/10/05 12:24:34;;;;;;;1.73;1.67;;;20.40;90.70;;;;;;5044219;28;20491;-89
2022/10/05 12:30:44;;;;;;;5.53;2.03;;;20.70;90.30;;;;;;5021205;28;20464;-89
2022/10/05 12:33:53;;;;;;;1.43;1.33;;;21.00;90.10;;;;;;4988881;28;20419;-89
2022/10/05 12:42:19;;;;;;;2.20;1.60;;;22.00;88.20;;;;;;4995313;28;20424;-89
2022/10/05 12:45:09;;;;;;;1.47;1.37;;;22.30;87.40;;;;;;5008919;28;20503;-88
2022/10/05 12:48:04;;;;;;;4.60;1.60;;;22.50;86.50;;;;;;5027505;28;20502;-88
2022/10/05 12:51:08;;;;;;;1.73;1.27;;;22.70;86.40;;;;;;5056562;28;20464;-89
2022/10/05 12:53:51;;;;;;;1.80;1.60;;;22.80;85.80;;;;;;5073766;28;20466;-89
2022/10/05 12:56:44;;;;;;;2.70;1.90;;;22.90;85.20;;;;;;5071607;28;20413;-89
2022/10/05 12:59:18;;;;;;;3.40;1.87;;;22.80;85.20;;;;;;5054778;28;20952;-89
2022/10/05 13:02:13;;;;;;;1.37;1.30;;;22.90;84.70;;;;;;5054521;28;20452;-88
2022/10/05 13:05:00;;;;;;;4.27;1.50;;;22.90;85.40;;;;;;4980999;28;20939;-90
2022/10/05 13:08:03;;;;;;;3.27;2.13;;;23.00;85.50;;;;;;5042393;28;20413;-88
2022/10/05 13:10:55;;;;;;;1.83;1.20;;;23.20;84.40;;;;;;5058232;28;20526;-85
2022/10/05 13:13:33;;;;;;;1.77;1.67;;;23.30;84.20;;;;;;5044586;28;20414;-85
2022/10/05 13:16:10;;;;;;;1.27;1.17;;;23.40;84.10;;;;;;5054052;28;20433;-84
2022/10/05 13:19:03;;;;;;;1.63;1.20;;;23.50;84.10;;;;;;5040916;28;20463;-84
2022/10/05 13:21:46;;;;;;;1.73;1.73;;;23.70;83.50;;;;;;5070672;28;20600;-86
2022/10/05 13:24:23;;;;;;;2.37;2.07;;;23.50;82.70;;;;;;5084046;28;20452;-85
2022/10/05 13:26:59;;;;;;;5.77;2.00;;;23.30;83.70;;;;;;5061155;28;20860;-85
2022/10/05 13:29:33;;;;;;;1.30;1.20;;;23.20;83.60;;;;;;5060327;28;20787;-85
2022/10/05 13:32:22;;;;;;;1.40;1.30;;;23.30;84.10;;;;;;5072605;28;20798;-85
2022/10/05 13:35:15;;;;;;;2.70;2.27;;;23.50;83.10;;;;;;5056943;28;20467;-85
2022/10/05 13:38:06;;;;;;;1.33;1.33;;;23.50;82.50;;;;;;5084087;28;20436;-85
2022/10/05 13:40:50;;;;;;;1.57;1.50;;;23.60;82.30;;;;;;5060060;28;20452;-86
2022/10/05 13:43:39;;;;;;;1.40;1.27;;;23.70;82.70;;;;;;5063025;28;20983;-87
2022/10/05 13:46:07;;;;;;;1.30;1.20;;;23.80;83.20;;;;;;5072631;28;20803;-86
2022/10/05 13:48:58;;;;;;;2.07;1.97;;;24.00;82.80;;;;;;5073096;28;20507;-85
2022/10/05 13:51:48;;;;;;;2.17;1.70;;;24.20;82.20;;;;;;5073083;28;20467;-86
2022/10/05 13:54:28;;;;;;;2.23;1.40;;;24.30;81.20;;;;;;5059724;28;20815;-86
2022/10/05 13:57:07;;;;;;;1.27;1.17;;;24.40;81.40;;;;;;5072063;28;20457;-86
2022/10/05 13:59:39;;;;;;;1.97;1.67;;;24.50;81.20;;;;;;5072786;28;20607;-84
2022/10/05 14:02:14;;;;;;;1.47;1.03;;;24.40;80.50;;;;;;5072248;28;20424;-85
2022/10/05 14:04:47;;;;;;;1.90;1.80;;;24.30;80.70;;;;;;5072896;28;20420;-86
2022/10/05 14:07:33;;;;;;;1.30;1.23;;;24.30;80.80;;;;;;5072492;28;20459;-85
2022/10/05 14:10:00;;;;;;;1.47;1.37;;;24.30;80.90;;;;;;5058942;28;20514;-85
2022/10/05 14:12:27;;;;;;;1.47;1.30;;;24.50;80.90;;;;;;5063648;28;20437;-85
2022/10/05 14:14:55;;;;;;;1.43;1.30;;;24.60;80.90;;;;;;5068527;28;20421;-86
2022/10/05 14:17:42;;;;;;;1.43;1.37;;;24.50;80.20;;;;;;5072653;28;20178;-86
2022/10/05 14:20:19;;;;;;;1.97;1.77;;;24.30;80.90;;;;;;5071994;28;20439;-85
2022/10/05 14:22:53;;;;;;;1.20;1.10;;;24.10;80.60;;;;;;5058912;28;20515;-86
2022/10/05 14:25:18;;;;;;;1.70;1.47;;;24.10;81.10;;;;;;5072345;28;20420;-85
2022/10/05 14:28:02;;;;;;;1.23;1.13;;;24.10;81.30;;;;;;5059348;28;20455;-86
2022/10/05 14:30:31;;;;;;;2.40;1.60;;;24.10;80.90;;;;;;5072324;28;20294;-86
2022/10/05 14:33:03;;;;;;;1.47;1.37;;;24.30;81.00;;;;;;5072222;28;20423;-86
2022/10/05 14:35:36;;;;;;;2.00;1.30;;;24.30;80.80;;;;;;5090134;28;20416;-86
2022/10/05 14:38:16;;;;;;;2.97;1.67;;;24.50;80.80;;;;;;5071795;28;20497;-86
2022/10/05 14:40:41;;;;;;;1.47;1.37;;;24.60;80.30;;;;;;5071844;28;20544;-85
2022/10/05 14:43:13;;;;;;;1.60;1.50;;;24.60;80.50;;;;;;5071905;28;20878;-86
2022/10/05 14:45:54;;;;;;;1.13;1.00;;;24.60;80.20;;;;;;5088568;28;20178;-85
2022/10/05 14:48:20;;;;;;;1.07;0.97;;;24.60;80.30;;;;;;5072384;28;20512;-85
2022/10/05 14:50:58;;;;;;;1.43;1.20;;;24.60;80.30;;;;;;5071595;28;20998;-85